createdAt,value
2023-04-19T00:01:41.748Z,21.50
2023-04-19T00:04:09.799Z,23.00
2023-04-19T00:06:38.045Z,17.00
2023-04-19T00:09:07.298Z,21.25
2023-04-19T00:11:34.873Z,19.50
2023-04-19T00:14:02.850Z,18.25
2023-04-19T00:16:30.454Z,18.00
2023-04-19T00:18:58.040Z,21.25
2023-04-19T00:21:26.365Z,23.00
2023-04-19T00:23:54.208Z,24.25
2023-04-19T00:26:22.665Z,28.50
2023-04-19T00:28:50.279Z,20.00
2023-04-19T00:31:17.864Z,23.50
2023-04-19T00:33:45.481Z,29.50
2023-04-19T00:36:13.156Z,24.75
2023-04-19T00:38:41.289Z,26.50
2023-04-19T00:41:08.904Z,21.25
2023-04-19T00:43:36.548Z,21.00
2023-04-19T00:46:04.249Z,25.00
2023-04-19T00:48:32.187Z,12.75
2023-04-19T00:51:02.163Z,24.25
2023-04-19T00:53:29.759Z,20.25
2023-04-19T00:55:57.381Z,23.00
2023-04-19T00:58:25.042Z,13.00
2023-04-19T01:00:52.637Z,18.50
2023-04-19T01:03:21.018Z,16.25
2023-04-19T01:05:48.763Z,15.50
2023-04-19T01:08:16.732Z,21.75
2023-04-19T01:10:44.319Z,15.25
2023-04-19T01:13:12.656Z,17.75
2023-04-19T01:15:40.851Z,19.25
2023-04-19T01:18:08.469Z,22.00
2023-04-19T01:20:36.189Z,18.25
2023-04-19T01:23:03.767Z,22.50
2023-04-19T01:25:31.331Z,19.00
2023-04-19T01:27:59.443Z,24.75
2023-04-19T01:30:26.998Z,19.00
2023-04-19T01:32:54.642Z,23.50
2023-04-19T01:35:22.729Z,23.00
2023-04-19T01:37:50.786Z,19.00
2023-04-19T01:40:18.977Z,23.25
2023-04-19T01:42:46.605Z,24.75
2023-04-19T01:45:14.173Z,25.50
2023-04-19T01:47:41.791Z,21.00
2023-04-19T01:50:09.412Z,20.50
2023-04-19T01:52:37.756Z,22.50
2023-04-19T01:55:05.718Z,22.50
2023-04-19T01:57:33.755Z,21.50
2023-04-19T02:00:01.590Z,15.00
2023-04-19T02:02:29.455Z,22.00
2023-04-19T02:04:57.254Z,13.75
2023-04-19T02:07:24.853Z,24.50
2023-04-19T02:09:52.542Z,17.25
2023-04-19T02:12:20.277Z,17.75
2023-04-19T02:14:47.857Z,17.00
2023-04-19T02:17:16.303Z,13.75
2023-04-19T02:19:44.342Z,9.00
2023-04-19T02:22:11.930Z,14.00
2023-04-19T02:24:39.517Z,13.00
2023-04-19T02:27:07.127Z,10.00
2023-04-19T02:29:34.918Z,10.50
2023-04-19T02:32:06.118Z,12.00
2023-04-19T02:34:33.831Z,6.75
2023-04-19T02:37:01.425Z,8.75
2023-04-19T02:39:29.036Z,8.25
2023-04-19T02:41:58.498Z,9.25
2023-04-19T02:44:26.257Z,7.00
2023-04-19T02:46:53.827Z,8.50
2023-04-19T02:49:21.469Z,9.00
2023-04-19T02:51:49.053Z,7.00
2023-04-19T02:54:16.917Z,6.00
2023-04-19T02:56:44.664Z,9.50
2023-04-19T02:59:12.259Z,3.75
2023-04-19T03:01:39.907Z,7.50
2023-04-19T03:04:07.597Z,6.00
2023-04-19T03:06:35.852Z,6.25
2023-04-19T03:09:03.471Z,9.00
2023-04-19T03:11:31.109Z,7.00
2023-04-19T03:13:58.704Z,4.50
2023-04-19T03:16:26.761Z,9.25
2023-04-19T03:18:55.344Z,4.00
2023-04-19T03:21:27.184Z,9.00
2023-04-19T03:23:54.791Z,6.00
2023-04-19T03:26:22.912Z,6.25
2023-04-19T03:28:51.100Z,7.00
2023-04-19T03:31:19.334Z,6.25
2023-04-19T03:33:47.012Z,6.00
2023-04-19T03:36:14.605Z,6.50
2023-04-19T03:38:42.201Z,6.00
2023-04-19T03:41:09.883Z,8.00
2023-04-19T03:43:37.808Z,6.25
2023-04-19T03:46:05.725Z,6.00
2023-04-19T03:48:35.796Z,7.00
2023-04-19T03:51:03.396Z,4.00
2023-04-19T03:53:31.001Z,6.00
2023-04-19T03:55:58.951Z,8.00
2023-04-19T03:58:26.512Z,4.00
2023-04-19T04:00:54.067Z,7.00
2023-04-19T04:03:21.776Z,6.00
2023-04-19T04:05:49.490Z,5.00
2023-04-19T04:08:17.103Z,7.00
2023-04-19T04:10:45.316Z,6.50
2023-04-19T04:13:12.888Z,10.00
2023-04-19T04:15:40.460Z,4.00
2023-04-19T04:18:09.104Z,8.00
2023-04-19T04:20:37.257Z,6.75
2023-04-19T04:23:04.833Z,6.00
2023-04-19T04:25:33.190Z,8.75
2023-04-19T04:28:00.804Z,7.50
2023-04-19T04:30:28.866Z,6.25
2023-04-19T04:32:58.604Z,6.75
2023-04-19T04:35:26.234Z,6.25
2023-04-19T04:37:54.691Z,4.00
2023-04-19T04:40:22.286Z,6.00
2023-04-19T04:42:53.095Z,7.00
2023-04-19T04:45:21.243Z,7.00
2023-04-19T04:47:49.062Z,9.00
2023-04-19T04:50:16.836Z,6.50
2023-04-19T04:52:44.396Z,6.00
2023-04-19T04:55:12.409Z,4.00
2023-04-19T04:57:40.331Z,3.25
2023-04-19T05:00:07.936Z,9.00
2023-04-19T05:02:35.840Z,9.75
2023-04-19T05:05:03.528Z,6.75
2023-04-19T05:07:31.126Z,1.00
2023-04-19T05:09:59.696Z,7.75
2023-04-19T05:12:27.298Z,6.75
2023-04-19T05:14:54.884Z,9.00
2023-04-19T05:17:23.083Z,9.75
2023-04-19T05:19:51.172Z,7.00
2023-04-19T05:22:19.489Z,5.00
2023-04-19T05:24:47.529Z,11.00
2023-04-19T05:27:15.169Z,11.00
2023-04-19T05:29:42.822Z,9.00
2023-04-19T05:32:10.511Z,9.25
2023-04-19T05:34:38.675Z,6.50
2023-04-19T05:37:06.319Z,7.00
2023-04-19T05:39:34.512Z,5.00
2023-04-19T05:42:02.412Z,9.25
2023-04-19T05:44:30.088Z,7.00
2023-04-19T05:46:58.473Z,4.00
2023-04-19T05:49:26.120Z,10.50
2023-04-19T05:51:55.593Z,4.00
2023-04-19T05:54:23.410Z,6.50
2023-04-19T05:56:51.055Z,7.25
2023-04-19T05:59:19.278Z,3.00
2023-04-19T06:01:47.090Z,8.50
2023-04-19T06:04:15.238Z,7.00
2023-04-19T06:06:43.342Z,8.75
2023-04-19T06:09:12.361Z,9.50
2023-04-19T06:11:49.980Z,3.00
2023-04-19T06:14:19.491Z,8.50
2023-04-19T06:16:47.400Z,4.00
2023-04-19T06:19:15.090Z,9.00
2023-04-19T06:21:44.392Z,7.00
2023-04-19T06:24:12.090Z,6.00
2023-04-19T06:26:39.733Z,8.00
2023-04-19T06:29:07.679Z,6.00
2023-04-19T06:31:35.554Z,3.50
2023-04-19T06:34:03.288Z,6.75
2023-04-19T06:36:31.119Z,6.75
2023-04-19T06:38:58.809Z,9.25
2023-04-19T06:41:26.896Z,3.00
2023-04-19T06:43:55.349Z,7.00
2023-04-19T06:46:23.909Z,5.00
2023-04-19T06:48:51.868Z,7.00
2023-04-19T06:51:19.670Z,8.50
2023-04-19T06:53:47.512Z,7.00
2023-04-19T06:56:15.239Z,6.75
2023-04-19T06:58:43.542Z,0.00
2023-04-19T07:01:13.282Z,5.00
2023-04-19T07:03:41.369Z,3.50
2023-04-19T07:06:09.734Z,6.50
2023-04-19T07:08:49.277Z,7.00
2023-04-19T07:11:20.253Z,1.00
2023-04-19T07:13:48.731Z,5.00
2023-04-19T07:16:16.648Z,4.00
2023-04-19T07:18:44.836Z,6.00
2023-04-19T07:21:12.531Z,5.50
2023-04-19T07:23:40.587Z,2.50
2023-04-19T07:26:08.503Z,7.50
2023-04-19T07:28:36.219Z,4.00
2023-04-19T07:31:04.069Z,5.75
2023-04-19T07:33:32.546Z,2.33
2023-04-19T07:36:00.940Z,5.25
2023-04-19T07:38:28.748Z,4.00
2023-04-19T07:40:56.616Z,3.25
2023-04-19T07:43:24.387Z,6.00
2023-04-19T07:45:52.313Z,3.75
2023-04-19T07:48:22.010Z,4.00
2023-04-19T07:50:49.689Z,4.00
2023-04-19T07:53:18.502Z,4.00
2023-04-19T07:55:46.256Z,4.00
2023-04-19T07:58:14.016Z,5.00
2023-04-19T08:00:42.337Z,3.50
2023-04-19T08:03:10.420Z,1.00
2023-04-19T08:05:38.692Z,5.00
2023-04-19T08:08:06.558Z,4.00
2023-04-19T08:10:36.167Z,6.00
2023-04-19T08:13:06.177Z,3.00
2023-04-19T08:18:05.534Z,5.50
2023-04-19T08:20:33.438Z,4.50
2023-04-19T08:23:07.549Z,0.00
2023-04-19T08:25:42.503Z,1.50
2023-04-19T08:28:10.281Z,3.00
2023-04-19T08:30:37.964Z,4.00
2023-04-19T08:33:05.730Z,3.25
2023-04-19T08:35:33.490Z,3.00
2023-04-19T08:38:02.658Z,3.50
2023-04-19T08:40:31.343Z,3.00
2023-04-19T08:42:59.253Z,5.50
2023-04-19T08:45:28.631Z,1.50
2023-04-19T08:48:01.329Z,2.00
2023-04-19T08:50:36.100Z,1.00
2023-04-19T08:53:24.043Z,3.00
2023-04-19T08:56:10.713Z,3.00
2023-04-19T09:01:22.943Z,3.67
2023-04-19T09:04:02.441Z,3.00
2023-04-19T09:06:34.739Z,3.25
2023-04-19T09:09:02.752Z,3.00
2023-04-19T09:11:31.577Z,3.00
2023-04-19T09:13:59.246Z,3.00
2023-04-19T09:16:27.318Z,3.00
2023-04-19T09:19:02.670Z,3.00
2023-04-19T09:21:40.314Z,3.25
2023-04-19T09:24:08.069Z,2.50
2023-04-19T09:26:35.973Z,3.00
2023-04-19T09:29:04.771Z,3.00
2023-04-19T09:31:50.089Z,1.50
2023-04-19T09:34:20.028Z,5.00
2023-04-19T09:36:50.393Z,5.00
2023-04-19T09:39:22.609Z,3.50
2023-04-19T09:41:50.497Z,3.75
2023-04-19T09:46:53.492Z,4.00
2023-04-19T09:49:33.602Z,3.75
2023-04-19T09:52:09.828Z,4.00
2023-04-19T09:54:37.755Z,3.00
2023-04-19T09:57:05.839Z,3.00
2023-04-19T09:59:34.149Z,5.00
2023-04-19T10:02:02.032Z,3.60
2023-04-19T10:04:47.825Z,4.80
2023-04-19T10:07:30.032Z,4.00
2023-04-19T10:10:11.787Z,5.60
2023-04-19T10:15:20.870Z,3.00
2023-04-19T10:17:49.144Z,3.25
2023-04-19T10:20:17.273Z,2.00
2023-04-19T10:22:45.005Z,3.25
2023-04-19T10:25:13.297Z,4.00
2023-04-19T10:27:42.258Z,3.20
2023-04-19T10:30:14.475Z,3.40
2023-04-19T10:32:42.476Z,6.00
2023-04-19T10:35:10.711Z,6.00
2023-04-19T10:37:39.846Z,5.20
2023-04-19T10:40:07.676Z,4.00
2023-04-19T10:42:36.052Z,6.00
2023-04-19T10:45:04.500Z,4.00
2023-04-19T10:47:32.465Z,6.20
2023-04-19T10:50:00.316Z,7.40
2023-04-19T10:52:28.363Z,5.80
2023-04-19T10:54:58.716Z,4.20
2023-04-19T10:57:27.909Z,4.80
2023-04-19T10:59:55.855Z,4.00
2023-04-19T11:02:24.130Z,7.20
2023-04-19T11:04:52.123Z,4.40
2023-04-19T11:07:21.546Z,5.00
2023-04-19T11:09:50.131Z,5.60
2023-04-19T11:12:17.915Z,5.00
2023-04-19T11:14:45.798Z,5.00
2023-04-19T11:17:14.100Z,4.20
2023-04-19T11:19:42.556Z,8.00
2023-04-19T11:22:10.385Z,5.00
2023-04-19T11:24:38.338Z,4.40
2023-04-19T11:27:06.250Z,5.00
2023-04-19T11:29:34.134Z,4.40
2023-04-19T11:32:02.440Z,6.00
2023-04-19T11:34:30.177Z,5.20
2023-04-19T11:36:58.051Z,4.00
2023-04-19T11:39:26.449Z,5.20
2023-04-19T11:41:54.366Z,6.00
2023-04-19T11:44:22.789Z,6.40
2023-04-19T11:46:50.721Z,6.20
2023-04-19T11:49:18.641Z,5.20
2023-04-19T11:51:46.515Z,4.20
2023-04-19T11:54:15.273Z,6.80
2023-04-19T11:56:44.087Z,7.00
2023-04-19T11:59:11.919Z,6.60
2023-04-19T12:01:39.888Z,7.00
2023-04-19T12:04:07.851Z,6.60
2023-04-19T12:06:35.953Z,7.00
2023-04-19T12:09:04.599Z,7.40
2023-04-19T12:11:32.932Z,6.40
2023-04-19T12:14:00.816Z,7.00
2023-04-19T12:16:28.912Z,6.80
2023-04-19T12:18:56.776Z,9.80
2023-04-19T12:21:26.934Z,6.60
2023-04-19T12:23:54.908Z,7.40
2023-04-19T12:26:22.695Z,9.60
2023-04-19T12:28:50.635Z,6.80
2023-04-19T12:31:18.635Z,7.80
2023-04-19T12:33:47.162Z,7.20
2023-04-19T12:36:15.030Z,8.80
2023-04-19T12:38:43.030Z,8.00
2023-04-19T12:41:10.837Z,8.40
2023-04-19T12:43:39.342Z,7.40
2023-04-19T12:46:07.295Z,7.00
2023-04-19T12:48:35.159Z,6.20
2023-04-19T12:51:03.001Z,5.20
2023-04-19T12:53:31.033Z,9.40
2023-04-19T12:55:58.920Z,5.80
2023-04-19T12:58:28.732Z,6.00
2023-04-19T13:00:56.848Z,5.40
2023-04-19T13:03:25.016Z,6.00
2023-04-19T13:05:53.421Z,10.00
2023-04-19T13:08:28.203Z,10.20
2023-04-19T13:11:06.232Z,7.00
2023-04-19T13:13:34.217Z,5.00
2023-04-19T13:16:02.108Z,7.20
2023-04-19T13:18:30.100Z,4.40
2023-04-19T13:20:58.062Z,6.40
2023-04-19T13:23:26.753Z,6.20
2023-04-19T13:25:54.982Z,6.60
2023-04-19T13:28:23.166Z,5.80
2023-04-19T13:30:51.190Z,8.60
2023-04-19T13:33:19.009Z,5.00
2023-04-19T13:35:47.485Z,7.60
2023-04-19T13:38:15.410Z,5.00
2023-04-19T13:40:43.489Z,7.00
2023-04-19T13:43:11.400Z,5.80
2023-04-19T13:45:39.235Z,3.20
2023-04-19T13:48:09.163Z,8.00
2023-04-19T13:50:37.085Z,7.00
2023-04-19T13:53:05.016Z,4.20
2023-04-19T13:55:32.776Z,7.00
2023-04-19T13:58:01.098Z,5.80
2023-04-19T14:00:30.251Z,5.80
2023-04-19T14:02:58.226Z,4.00
2023-04-19T14:05:26.294Z,4.20
2023-04-19T14:07:54.341Z,7.00
2023-04-19T14:10:22.721Z,7.00
2023-04-19T14:12:53.677Z,5.40
2023-04-19T14:15:23.560Z,7.60
2023-04-19T14:17:51.796Z,4.00
2023-04-19T14:20:19.725Z,5.00
2023-04-19T14:22:47.782Z,5.00
2023-04-19T14:25:18.476Z,4.60
2023-04-19T14:27:46.521Z,4.00
2023-04-19T14:30:14.517Z,5.40
2023-04-19T14:32:42.567Z,4.80
2023-04-19T14:35:11.633Z,4.80
2023-04-19T14:37:40.117Z,2.80
2023-04-19T14:40:07.947Z,5.00
2023-04-19T14:42:37.870Z,1.20
2023-04-19T14:45:05.757Z,4.00
2023-04-19T14:47:33.666Z,4.00
2023-04-19T14:50:02.546Z,4.80
2023-04-19T14:52:30.873Z,4.00
2023-04-19T14:54:59.960Z,5.00
2023-04-19T14:57:28.092Z,4.80
2023-04-19T14:59:57.905Z,5.60
2023-04-19T15:02:26.855Z,4.80
2023-04-19T15:04:55.287Z,5.00
2023-04-19T15:07:23.393Z,4.80
2023-04-19T15:09:51.150Z,5.00
2023-04-19T15:12:19.102Z,5.60
2023-04-19T15:14:47.836Z,7.00
2023-04-19T15:17:16.999Z,5.00
2023-04-19T15:19:47.317Z,3.40
2023-04-19T15:22:15.182Z,6.00
2023-04-19T15:24:42.959Z,4.00
2023-04-19T15:27:11.476Z,4.40
2023-04-19T15:29:41.610Z,2.00
2023-04-19T15:32:09.502Z,4.00
2023-04-19T15:34:37.579Z,4.00
2023-04-19T15:37:06.815Z,5.00
2023-04-19T15:39:36.941Z,2.00
2023-04-19T15:42:05.707Z,5.20
2023-04-19T15:44:33.583Z,2.80
2023-04-19T15:47:01.489Z,2.00
2023-04-19T15:49:29.427Z,5.00
2023-04-19T15:51:58.366Z,4.80
2023-04-19T15:54:26.327Z,4.60
2023-04-19T15:56:54.913Z,1.20
2023-04-19T15:59:22.817Z,4.20
2023-04-19T16:01:50.987Z,2.00
2023-04-19T16:04:19.435Z,2.40
2023-04-19T16:06:47.481Z,5.00
2023-04-19T16:09:15.775Z,3.20
2023-04-19T16:11:44.156Z,5.60
2023-04-19T16:14:11.953Z,4.40
2023-04-19T16:16:40.390Z,2.40
2023-04-19T16:19:08.603Z,5.80
2023-04-19T16:21:37.184Z,3.60
2023-04-19T16:24:05.035Z,6.80
2023-04-19T16:26:32.987Z,4.40
2023-04-19T16:29:01.905Z,4.40
2023-04-19T16:31:29.802Z,5.20
2023-04-19T16:33:57.845Z,5.00
2023-04-19T16:36:25.733Z,3.00
2023-04-19T16:38:53.618Z,4.00
2023-04-19T16:41:22.163Z,4.50
2023-04-19T16:43:50.471Z,5.50
2023-04-19T16:46:18.432Z,3.00
2023-04-19T16:48:46.553Z,6.50
2023-04-19T16:51:14.588Z,5.00
2023-04-19T16:53:44.283Z,3.50
2023-04-19T16:56:12.355Z,4.00
2023-04-19T16:58:40.520Z,6.50
2023-04-19T17:01:09.379Z,2.00
2023-04-19T17:03:37.767Z,4.50
2023-04-19T17:06:07.686Z,5.00
2023-04-19T17:08:35.564Z,0.00
2023-04-19T17:11:03.600Z,7.00
2023-04-19T17:13:31.536Z,6.75
2023-04-19T17:15:59.461Z,10.50
2023-04-19T17:18:28.138Z,7.00
2023-04-19T17:20:56.120Z,6.00
2023-04-19T17:23:23.882Z,7.00
2023-04-19T17:25:51.808Z,7.00
2023-04-19T17:28:19.945Z,6.50
2023-04-19T17:30:48.283Z,6.75
2023-04-19T17:33:16.184Z,5.50
2023-04-19T17:35:43.930Z,6.50
2023-04-19T17:38:12.768Z,1.50
2023-04-19T17:40:40.687Z,8.50
2023-04-19T17:43:08.936Z,4.00
2023-04-19T17:45:37.009Z,5.00
2023-04-19T17:48:04.944Z,3.00
2023-04-19T17:50:33.290Z,6.50
2023-04-19T17:53:01.086Z,4.00
2023-04-19T17:55:29.582Z,6.00
2023-04-19T17:57:57.580Z,4.00
2023-04-19T18:00:25.435Z,7.50
2023-04-19T18:02:53.526Z,6.75
2023-04-19T18:05:21.462Z,6.25
2023-04-19T18:07:50.027Z,6.50
2023-04-19T18:10:18.016Z,7.00
2023-04-19T18:12:46.197Z,4.50
2023-04-19T18:15:14.204Z,4.50
2023-04-19T18:17:42.117Z,7.50
2023-04-19T18:20:10.778Z,1.00
2023-04-19T18:22:40.394Z,9.00
2023-04-19T18:25:08.305Z,6.00
2023-04-19T18:27:36.116Z,6.75
2023-04-19T18:30:05.316Z,4.00
2023-04-19T18:32:33.752Z,5.00
2023-04-19T18:35:04.365Z,7.00
2023-04-19T18:37:32.323Z,6.25
2023-04-19T18:40:00.420Z,6.25
2023-04-19T18:42:28.375Z,4.00
2023-04-19T18:44:56.824Z,7.00
2023-04-19T18:47:24.662Z,5.00
2023-04-19T18:50:04.552Z,7.50
2023-04-19T18:52:34.064Z,7.67
2023-04-19T18:55:02.713Z,9.00
2023-04-19T18:57:34.213Z,3.25
2023-04-19T19:00:02.979Z,7.00
2023-04-19T19:02:31.034Z,7.00
2023-04-19T19:05:02.050Z,6.00
2023-04-19T19:10:04.064Z,8.00
2023-04-19T19:12:43.030Z,6.75
2023-04-19T19:15:11.387Z,5.50
2023-04-19T19:17:39.769Z,4.75
2023-04-19T19:20:08.091Z,7.25
2023-04-19T19:22:36.056Z,2.50
2023-04-19T19:25:03.831Z,6.00
2023-04-19T19:27:31.748Z,5.75
2023-04-19T19:30:00.628Z,6.50
2023-04-19T19:32:28.737Z,3.00
2023-04-19T19:35:03.159Z,4.00
2023-04-19T19:37:31.800Z,5.50
2023-04-19T19:40:04.162Z,3.00
2023-04-19T19:42:34.368Z,4.50
2023-04-19T19:45:02.327Z,6.50
2023-04-19T19:47:31.769Z,4.00
2023-04-19T19:52:30.515Z,6.00
2023-04-19T19:54:58.911Z,6.50
2023-04-19T20:00:13.959Z,8.25
2023-04-19T20:02:54.770Z,6.00
2023-04-19T20:05:25.293Z,0.50
2023-04-19T20:08:01.592Z,4.00
2023-04-19T20:10:33.014Z,3.75
2023-04-19T20:13:01.727Z,7.00
2023-04-19T20:15:31.154Z,5.25
2023-04-19T20:17:59.502Z,4.80
2023-04-19T20:20:27.297Z,6.00
2023-04-19T20:22:55.114Z,3.00
2023-04-19T20:25:23.076Z,4.00
2023-04-19T20:27:51.370Z,3.00
2023-04-19T20:30:19.222Z,6.40
2023-04-19T20:32:48.760Z,4.80
2023-04-19T20:35:16.636Z,6.40
2023-04-19T20:37:44.652Z,4.00
2023-04-19T20:40:15.187Z,7.40
2023-04-19T20:42:43.620Z,4.00
2023-04-19T20:45:11.449Z,6.80
2023-04-19T20:47:39.445Z,4.00
2023-04-19T20:50:07.316Z,6.60
2023-04-19T20:52:35.850Z,6.20
2023-04-19T20:55:03.866Z,7.80
2023-04-19T20:57:31.630Z,6.40
2023-04-19T20:59:59.513Z,4.00
2023-04-19T21:02:27.649Z,5.20
2023-04-19T21:04:56.048Z,0.00
2023-04-19T21:07:23.945Z,5.20
2023-04-19T21:09:51.761Z,4.00
2023-04-19T21:12:19.496Z,4.00
2023-04-19T21:14:49.433Z,6.00
2023-04-19T21:17:17.754Z,3.00
2023-04-19T21:19:45.513Z,3.60
2023-04-19T21:22:13.237Z,7.20
2023-04-19T21:24:41.476Z,3.00
2023-04-19T21:27:09.289Z,5.60
2023-04-19T21:29:37.577Z,6.80
2023-04-19T21:32:05.488Z,6.60
2023-04-19T21:34:33.202Z,4.00
2023-04-19T21:37:01.060Z,4.00
2023-04-19T21:39:28.876Z,6.20
2023-04-19T21:41:58.019Z,3.40
2023-04-19T21:44:25.890Z,6.00
2023-04-19T21:46:54.234Z,4.00
2023-04-19T21:49:22.082Z,3.00
2023-04-19T21:51:51.443Z,3.60
2023-04-19T21:54:30.595Z,5.60
2023-04-19T21:57:01.754Z,3.40
2023-04-19T21:59:29.679Z,2.20
2023-04-19T22:01:57.450Z,6.00
2023-04-19T22:04:25.466Z,4.40
2023-04-19T22:06:54.112Z,6.00
2023-04-19T22:09:21.777Z,3.60
2023-04-19T22:11:50.593Z,1.80
2023-04-19T22:14:18.934Z,6.00
2023-04-19T22:16:48.097Z,4.80
2023-04-19T22:19:16.426Z,3.40
2023-04-19T22:21:44.549Z,5.20
2023-04-19T22:24:12.361Z,1.80
2023-04-19T22:26:40.142Z,3.00
2023-04-19T22:29:09.609Z,5.60
2023-04-19T22:31:37.447Z,3.60
2023-04-19T22:34:05.238Z,4.00
2023-04-19T22:36:33.332Z,3.00
2023-04-19T22:39:01.274Z,4.00
2023-04-19T22:41:29.607Z,4.60
2023-04-19T22:43:57.382Z,3.00
2023-04-19T22:46:25.143Z,5.60
2023-04-19T22:48:52.910Z,3.00
2023-04-19T22:51:21.232Z,0.80
2023-04-19T22:53:49.583Z,3.40
2023-04-19T22:56:17.983Z,4.00
2023-04-19T22:58:45.816Z,3.00
2023-04-19T23:01:13.625Z,1.80
2023-04-19T23:03:42.860Z,1.00
2023-04-19T23:06:11.063Z,1.40
2023-04-19T23:08:40.507Z,3.60
2023-04-19T23:11:10.253Z,6.00
2023-04-19T23:13:41.530Z,4.00
2023-04-19T23:16:11.377Z,1.00
2023-04-19T23:18:40.365Z,4.80
2023-04-19T23:21:08.184Z,5.20
2023-04-19T23:23:35.984Z,4.00
2023-04-19T23:26:03.677Z,6.60
2023-04-19T23:28:31.787Z,5.20
2023-04-19T23:30:59.517Z,4.00
2023-04-19T23:33:27.148Z,5.20
2023-04-19T23:35:55.360Z,6.40
2023-04-19T23:38:23.031Z,3.40
2023-04-19T23:40:50.784Z,4.80
2023-04-19T23:43:18.939Z,7.40
2023-04-19T23:45:46.637Z,9.40
2023-04-19T23:48:14.364Z,6.00
2023-04-19T23:50:42.038Z,7.00
2023-04-19T23:53:10.129Z,6.40
2023-04-19T23:55:38.195Z,7.00
2023-04-19T23:58:06.657Z,6.00
